Fort Bridger, Wyoming
Current Conditions -  °F | °C
As of 5:35 PM on Tuesday 25 Nov 2014 (Local Time) from KFBR Reporting Station
Overcast Overcast  
Wind Chill: -5°   Ceiling: 2100
Heat Index:   Visibility: 10mi
Dew Point:   Wind: 22mph
Humidity: 91%   Direction: 250°WSW
Pressure: 30.19"   Gusts: 37mph
Location:  41.32°N, 110.39°W
Report Text: KFBR 260035Z AUTO 25019G32KT 10SM OVC021 01/00 A3019 RMK AO2 T00121001
Loading
Personal Weather Stations






























Interactive Weather Map New forecast layout! Learn more

10-Day Weather Forecast

Advertisements
Track Severe Weather on mobile